sensor_id;sensor_type;location;lat;lon;timestamp;temperature;humidity
18305;DHT22;9278;52.156;21.048;2023-04-15T00:03:46;11.00;1.00
18305;DHT22;9278;52.156;21.048;2023-04-15T00:11:13;10.50;1.00
18305;DHT22;9278;52.156;21.048;2023-04-15T00:16:10;10.10;1.00
18305;DHT22;9278;52.156;21.048;2023-04-15T00:23:35;9.90;1.00
18305;DHT22;9278;52.156;21.048;2023-04-15T00:28:34;9.80;1.00
18305;DHT22;9278;52.156;21.048;2023-04-15T00:33:32;10.10;1.00
18305;DHT22;9278;52.156;21.048;2023-04-15T00:45:58;9.50;1.00
18305;DHT22;9278;52.156;21.048;2023-04-15T00:48:26;10.20;1.00
18305;DHT22;9278;52.156;21.048;2023-04-15T00:53:23;10.30;1.00
18305;DHT22;9278;52.156;21.048;2023-04-15T00:55:51;10.20;1.00
18305;DHT22;9278;52.156;21.048;2023-04-15T00:58:20;10.20;99.90
18305;DHT22;9278;52.156;21.048;2023-04-15T01:00:49;10.20;99.90
18305;DHT22;9278;52.156;21.048;2023-04-15T01:03:21;10.30;1.00
18305;DHT22;9278;52.156;21.048;2023-04-15T01:05:50;10.20;1.00
18305;DHT22;9278;52.156;21.048;2023-04-15T01:08:26;9.50;1.00
18305;DHT22;9278;52.156;21.048;2023-04-15T01:10:55;9.50;1.00
18305;DHT22;9278;52.156;21.048;2023-04-15T01:15:52;9.80;1.00
18305;DHT22;9278;52.156;21.048;2023-04-15T01:25:53;9.50;99.90
18305;DHT22;9278;52.156;21.048;2023-04-15T01:31:05;10.00;99.90
18305;DHT22;9278;52.156;21.048;2023-04-15T01:36:06;10.80;99.90
18305;DHT22;9278;52.156;21.048;2023-04-15T01:41:05;9.80;99.90
18305;DHT22;9278;52.156;21.048;2023-04-15T01:58:31;9.80;99.90
18305;DHT22;9278;52.156;21.048;2023-04-15T02:33:21;9.60;99.90
18305;DHT22;9278;52.156;21.048;2023-04-15T02:45:45;9.60;99.90
18305;DHT22;9278;52.156;21.048;2023-04-15T02:50:46;9.60;1.00
18305;DHT22;9278;52.156;21.048;2023-04-15T02:53:16;9.50;99.90
18305;DHT22;9278;52.156;21.048;2023-04-15T02:55:45;9.50;1.00
18305;DHT22;9278;52.156;21.048;2023-04-15T02:58:13;9.50;1.00
18305;DHT22;9278;52.156;21.048;2023-04-15T03:04:55;9.60;99.90
18305;DHT22;9278;52.156;21.048;2023-04-15T03:07:25;9.70;99.90
18305;DHT22;9278;52.156;21.048;2023-04-15T03:09:54;9.70;1.00
18305;DHT22;9278;52.156;21.048;2023-04-15T03:12:22;9.70;1.00
18305;DHT22;9278;52.156;21.048;2023-04-15T03:14:53;9.70;1.00
18305;DHT22;9278;52.156;21.048;2023-04-15T03:17:28;9.60;1.00
18305;DHT22;9278;52.156;21.048;2023-04-15T03:19:58;9.60;1.00
18305;DHT22;9278;52.156;21.048;2023-04-15T03:22:28;9.60;99.90
18305;DHT22;9278;52.156;21.048;2023-04-15T03:24:57;9.70;1.00
18305;DHT22;9278;52.156;21.048;2023-04-15T03:27:25;9.60;1.00
18305;DHT22;9278;52.156;21.048;2023-04-15T03:29:58;9.50;99.90
18305;DHT22;9278;52.156;21.048;2023-04-15T03:32:29;9.50;99.90
18305;DHT22;9278;52.156;21.048;2023-04-15T03:34:58;9.50;99.90
18305;DHT22;9278;52.156;21.048;2023-04-15T03:37:28;9.50;99.90
18305;DHT22;9278;52.156;21.048;2023-04-15T03:39:56;9.50;99.90
18305;DHT22;9278;52.156;21.048;2023-04-15T03:42:24;9.50;1.00
18305;DHT22;9278;52.156;21.048;2023-04-15T03:44:54;9.50;1.00
18305;DHT22;9278;52.156;21.048;2023-04-15T03:47:22;9.50;99.90
18305;DHT22;9278;52.156;21.048;2023-04-15T03:49:50;9.50;1.00
18305;DHT22;9278;52.156;21.048;2023-04-15T03:52:19;9.50;99.90
18305;DHT22;9278;52.156;21.048;2023-04-15T03:54:48;9.50;1.00
18305;DHT22;9278;52.156;21.048;2023-04-15T03:57:17;9.50;1.00
18305;DHT22;9278;52.156;21.048;2023-04-15T03:59:45;9.40;1.00
18305;DHT22;9278;52.156;21.048;2023-04-15T04:02:13;9.50;1.00
18305;DHT22;9278;52.156;21.048;2023-04-15T04:04:42;9.40;1.00
18305;DHT22;9278;52.156;21.048;2023-04-15T04:07:14;9.30;11.30
18305;DHT22;9278;52.156;21.048;2023-04-15T04:09:43;9.20;1.00
18305;DHT22;9278;52.156;21.048;2023-04-15T04:12:14;9.30;1.00
18305;DHT22;9278;52.156;21.048;2023-04-15T04:14:42;9.70;1.00
18305;DHT22;9278;52.156;21.048;2023-04-15T04:19:41;9.60;81.30
18305;DHT22;9278;52.156;21.048;2023-04-15T04:22:09;9.50;1.00
18305;DHT22;9278;52.156;21.048;2023-04-15T04:24:38;9.40;1.00
18305;DHT22;9278;52.156;21.048;2023-04-15T04:27:06;9.40;99.90
18305;DHT22;9278;52.156;21.048;2023-04-15T04:29:35;9.50;1.00
18305;DHT22;9278;52.156;21.048;2023-04-15T04:32:04;9.50;99.90
18305;DHT22;9278;52.156;21.048;2023-04-15T04:34:32;9.40;99.90
18305;DHT22;9278;52.156;21.048;2023-04-15T04:37:00;9.30;1.00
18305;DHT22;9278;52.156;21.048;2023-04-15T04:39:29;9.40;1.00
18305;DHT22;9278;52.156;21.048;2023-04-15T04:46:55;9.30;21.50
18305;DHT22;9278;52.156;21.048;2023-04-15T04:49:23;9.40;1.00
18305;DHT22;9278;52.156;21.048;2023-04-15T04:54:20;9.40;1.00
18305;DHT22;9278;52.156;21.048;2023-04-15T04:56:49;9.60;1.00
18305;DHT22;9278;52.156;21.048;2023-04-15T04:59:17;9.60;1.00
18305;DHT22;9278;52.156;21.048;2023-04-15T05:01:45;9.60;1.00
18305;DHT22;9278;52.156;21.048;2023-04-15T05:04:15;9.60;1.00
18305;DHT22;9278;52.156;21.048;2023-04-15T05:06:43;9.40;1.00
18305;DHT22;9278;52.156;21.048;2023-04-15T05:11:40;9.50;99.90
18305;DHT22;9278;52.156;21.048;2023-04-15T05:14:08;9.70;1.00
18305;DHT22;9278;52.156;21.048;2023-04-15T05:16:36;9.60;99.90
18305;DHT22;9278;52.156;21.048;2023-04-15T05:19:05;9.50;99.90
18305;DHT22;9278;52.156;21.048;2023-04-15T05:21:35;9.60;48.30
18305;DHT22;9278;52.156;21.048;2023-04-15T05:24:05;9.70;1.00
18305;DHT22;9278;52.156;21.048;2023-04-15T05:26:33;9.70;1.00
18305;DHT22;9278;52.156;21.048;2023-04-15T05:29:02;9.70;1.00
18305;DHT22;9278;52.156;21.048;2023-04-15T05:31:30;9.50;1.00
18305;DHT22;9278;52.156;21.048;2023-04-15T05:33:58;9.50;99.90
18305;DHT22;9278;52.156;21.048;2023-04-15T05:36:27;9.70;1.00
18305;DHT22;9278;52.156;21.048;2023-04-15T05:38:57;10.00;1.00
18305;DHT22;9278;52.156;21.048;2023-04-15T05:41:25;9.70;1.00
18305;DHT22;9278;52.156;21.048;2023-04-15T05:43:53;9.80;99.90
18305;DHT22;9278;52.156;21.048;2023-04-15T05:46:22;9.70;1.00
18305;DHT22;9278;52.156;21.048;2023-04-15T05:48:50;9.70;99.90
18305;DHT22;9278;52.156;21.048;2023-04-15T05:51:20;9.80;1.00
18305;DHT22;9278;52.156;21.048;2023-04-15T05:53:48;9.70;1.00
18305;DHT22;9278;52.156;21.048;2023-04-15T05:56:18;9.70;99.90
18305;DHT22;9278;52.156;21.048;2023-04-15T05:58:47;10.00;99.90
18305;DHT22;9278;52.156;21.048;2023-04-15T06:01:17;10.10;99.90
18305;DHT22;9278;52.156;21.048;2023-04-15T06:03:46;10.20;1.00
18305;DHT22;9278;52.156;21.048;2023-04-15T06:06:14;10.10;1.00
18305;DHT22;9278;52.156;21.048;2023-04-15T06:08:43;10.10;99.90
18305;DHT22;9278;52.156;21.048;2023-04-15T06:11:11;10.00;99.90
18305;DHT22;9278;52.156;21.048;2023-04-15T06:13:41;10.10;1.00
18305;DHT22;9278;52.156;21.048;2023-04-15T06:16:09;10.20;25.10
18305;DHT22;9278;52.156;21.048;2023-04-15T06:18:37;10.20;99.90
18305;DHT22;9278;52.156;21.048;2023-04-15T06:21:06;10.10;99.90
18305;DHT22;9278;52.156;21.048;2023-04-15T06:23:34;10.10;1.00
18305;DHT22;9278;52.156;21.048;2023-04-15T06:26:02;10.10;99.90
18305;DHT22;9278;52.156;21.048;2023-04-15T06:28:31;10.10;1.00
18305;DHT22;9278;52.156;21.048;2023-04-15T06:31:01;10.00;1.00
18305;DHT22;9278;52.156;21.048;2023-04-15T06:35:58;10.30;1.00
18305;DHT22;9278;52.156;21.048;2023-04-15T06:38:26;10.30;99.90
18305;DHT22;9278;52.156;21.048;2023-04-15T06:43:23;10.50;1.00
18305;DHT22;9278;52.156;21.048;2023-04-15T06:45:51;10.60;1.00
18305;DHT22;9278;52.156;21.048;2023-04-15T06:48:21;10.40;1.00
18305;DHT22;9278;52.156;21.048;2023-04-15T06:50:49;10.50;1.00
18305;DHT22;9278;52.156;21.048;2023-04-15T06:53:18;10.20;1.00
18305;DHT22;9278;52.156;21.048;2023-04-15T06:55:46;10.00;1.00
18305;DHT22;9278;52.156;21.048;2023-04-15T06:58:14;10.20;99.90
18305;DHT22;9278;52.156;21.048;2023-04-15T07:00:43;10.40;11.90
18305;DHT22;9278;52.156;21.048;2023-04-15T07:03:11;10.10;99.90
18305;DHT22;9278;52.156;21.048;2023-04-15T07:05:42;10.20;99.90
18305;DHT22;9278;52.156;21.048;2023-04-15T07:08:10;10.00;1.00
18305;DHT22;9278;52.156;21.048;2023-04-15T07:10:39;10.20;99.90
18305;DHT22;9278;52.156;21.048;2023-04-15T07:13:08;10.10;1.00
18305;DHT22;9278;52.156;21.048;2023-04-15T07:15:36;10.20;99.90
18305;DHT22;9278;52.156;21.048;2023-04-15T07:18:04;10.10;1.00
18305;DHT22;9278;52.156;21.048;2023-04-15T07:20:32;10.40;99.90
18305;DHT22;9278;52.156;21.048;2023-04-15T07:23:08;10.40;99.90
18305;DHT22;9278;52.156;21.048;2023-04-15T07:25:37;10.60;99.90
18305;DHT22;9278;52.156;21.048;2023-04-15T07:28:05;10.20;99.90
18305;DHT22;9278;52.156;21.048;2023-04-15T07:30:33;10.20;99.90
18305;DHT22;9278;52.156;21.048;2023-04-15T07:33:01;10.20;99.90
18305;DHT22;9278;52.156;21.048;2023-04-15T07:35:30;10.20;99.90
18305;DHT22;9278;52.156;21.048;2023-04-15T07:37:59;10.00;99.90
18305;DHT22;9278;52.156;21.048;2023-04-15T07:40:29;10.00;99.90
18305;DHT22;9278;52.156;21.048;2023-04-15T07:42:57;9.80;99.90
18305;DHT22;9278;52.156;21.048;2023-04-15T07:45:25;10.00;99.90
18305;DHT22;9278;52.156;21.048;2023-04-15T07:47:54;10.20;99.90
18305;DHT22;9278;52.156;21.048;2023-04-15T07:50:23;10.10;99.90
18305;DHT22;9278;52.156;21.048;2023-04-15T07:52:52;10.20;99.90
18305;DHT22;9278;52.156;21.048;2023-04-15T07:55:20;9.80;99.90
18305;DHT22;9278;52.156;21.048;2023-04-15T07:57:50;10.30;99.90
18305;DHT22;9278;52.156;21.048;2023-04-15T08:00:19;10.40;99.90
18305;DHT22;9278;52.156;21.048;2023-04-15T08:02:47;10.40;99.90
18305;DHT22;9278;52.156;21.048;2023-04-15T08:05:16;10.40;99.90
18305;DHT22;9278;52.156;21.048;2023-04-15T08:07:44;10.20;99.90
18305;DHT22;9278;52.156;21.048;2023-04-15T08:10:13;10.40;99.90
18305;DHT22;9278;52.156;21.048;2023-04-15T08:12:42;10.30;99.90
18305;DHT22;9278;52.156;21.048;2023-04-15T08:15:11;10.40;99.90
18305;DHT22;9278;52.156;21.048;2023-04-15T08:17:40;10.30;99.90
18305;DHT22;9278;52.156;21.048;2023-04-15T08:20:08;10.50;99.90
18305;DHT22;9278;52.156;21.048;2023-04-15T08:22:37;10.50;99.90
18305;DHT22;9278;52.156;21.048;2023-04-15T08:25:06;10.70;99.90
18305;DHT22;9278;52.156;21.048;2023-04-15T08:27:34;10.30;99.90
18305;DHT22;9278;52.156;21.048;2023-04-15T08:30:04;10.70;99.90
18305;DHT22;9278;52.156;21.048;2023-04-15T08:32:34;10.70;99.90
18305;DHT22;9278;52.156;21.048;2023-04-15T08:35:04;10.90;99.90
18305;DHT22;9278;52.156;21.048;2023-04-15T08:37:32;11.20;99.90
18305;DHT22;9278;52.156;21.048;2023-04-15T08:40:00;11.20;99.90
18305;DHT22;9278;52.156;21.048;2023-04-15T08:42:31;11.20;99.90
18305;DHT22;9278;52.156;21.048;2023-04-15T08:45:04;10.90;99.90
18305;DHT22;9278;52.156;21.048;2023-04-15T08:47:33;11.10;99.90
18305;DHT22;9278;52.156;21.048;2023-04-15T08:50:04;11.40;99.90
18305;DHT22;9278;52.156;21.048;2023-04-15T08:55:01;11.20;99.90
18305;DHT22;9278;52.156;21.048;2023-04-15T08:57:31;11.20;99.90
18305;DHT22;9278;52.156;21.048;2023-04-15T09:00:01;11.20;99.90
18305;DHT22;9278;52.156;21.048;2023-04-15T09:02:31;11.00;99.90
18305;DHT22;9278;52.156;21.048;2023-04-15T09:05:01;11.20;99.90
18305;DHT22;9278;52.156;21.048;2023-04-15T09:07:33;11.10;99.90
18305;DHT22;9278;52.156;21.048;2023-04-15T09:10:03;11.00;99.90
18305;DHT22;9278;52.156;21.048;2023-04-15T09:12:33;11.30;99.90
18305;DHT22;9278;52.156;21.048;2023-04-15T09:15:02;11.10;99.90
18305;DHT22;9278;52.156;21.048;2023-04-15T09:17:32;11.20;99.90
18305;DHT22;9278;52.156;21.048;2023-04-15T09:20:09;11.20;99.90
18305;DHT22;9278;52.156;21.048;2023-04-15T09:22:39;10.90;99.90
18305;DHT22;9278;52.156;21.048;2023-04-15T09:25:26;11.00;99.90
18305;DHT22;9278;52.156;21.048;2023-04-15T09:27:56;10.80;99.90
18305;DHT22;9278;52.156;21.048;2023-04-15T09:30:25;11.00;99.90
18305;DHT22;9278;52.156;21.048;2023-04-15T09:32:55;10.90;99.90
18305;DHT22;9278;52.156;21.048;2023-04-15T09:35:26;10.80;99.90
18305;DHT22;9278;52.156;21.048;2023-04-15T09:38:01;11.00;99.90
18305;DHT22;9278;52.156;21.048;2023-04-15T09:40:35;11.00;99.90
18305;DHT22;9278;52.156;21.048;2023-04-15T09:43:04;11.10;99.90
18305;DHT22;9278;52.156;21.048;2023-04-15T09:45:35;11.30;99.90
18305;DHT22;9278;52.156;21.048;2023-04-15T09:48:18;11.30;99.90
18305;DHT22;9278;52.156;21.048;2023-04-15T09:50:49;11.10;99.90
18305;DHT22;9278;52.156;21.048;2023-04-15T09:53:23;11.60;99.90
18305;DHT22;9278;52.156;21.048;2023-04-15T09:55:53;11.50;99.90
18305;DHT22;9278;52.156;21.048;2023-04-15T09:58:23;11.40;99.90
18305;DHT22;9278;52.156;21.048;2023-04-15T10:00:53;11.40;99.90
18305;DHT22;9278;52.156;21.048;2023-04-15T10:03:23;11.40;99.90
18305;DHT22;9278;52.156;21.048;2023-04-15T10:05:55;11.90;99.90
18305;DHT22;9278;52.156;21.048;2023-04-15T10:08:26;11.30;99.90
18305;DHT22;9278;52.156;21.048;2023-04-15T10:10:54;11.50;99.90
18305;DHT22;9278;52.156;21.048;2023-04-15T10:13:24;11.60;99.90
18305;DHT22;9278;52.156;21.048;2023-04-15T10:15:57;11.50;99.90
18305;DHT22;9278;52.156;21.048;2023-04-15T10:18:27;11.60;99.90
18305;DHT22;9278;52.156;21.048;2023-04-15T10:21:01;11.40;99.90
18305;DHT22;9278;52.156;21.048;2023-04-15T10:23:29;11.50;99.90
18305;DHT22;9278;52.156;21.048;2023-04-15T10:25:58;11.30;99.90
18305;DHT22;9278;52.156;21.048;2023-04-15T10:28:27;11.20;99.90
18305;DHT22;9278;52.156;21.048;2023-04-15T10:30:55;11.10;99.90
18305;DHT22;9278;52.156;21.048;2023-04-15T10:33:25;11.30;99.90
18305;DHT22;9278;52.156;21.048;2023-04-15T10:35:54;11.10;99.90
18305;DHT22;9278;52.156;21.048;2023-04-15T10:38:36;11.10;99.90
18305;DHT22;9278;52.156;21.048;2023-04-15T10:41:16;11.20;99.90
18305;DHT22;9278;52.156;21.048;2023-04-15T10:43:51;11.10;99.90
18305;DHT22;9278;52.156;21.048;2023-04-15T10:46:33;11.20;99.90
18305;DHT22;9278;52.156;21.048;2023-04-15T10:49:07;11.30;99.90
18305;DHT22;9278;52.156;21.048;2023-04-15T10:51:38;11.60;99.90
18305;DHT22;9278;52.156;21.048;2023-04-15T10:54:13;11.70;99.90
18305;DHT22;9278;52.156;21.048;2023-04-15T10:56:42;11.90;99.90
18305;DHT22;9278;52.156;21.048;2023-04-15T10:59:10;11.70;99.90
18305;DHT22;9278;52.156;21.048;2023-04-15T11:01:52;11.90;99.90
18305;DHT22;9278;52.156;21.048;2023-04-15T11:04:49;12.20;99.90
18305;DHT22;9278;52.156;21.048;2023-04-15T11:07:38;11.60;99.90
18305;DHT22;9278;52.156;21.048;2023-04-15T11:13:23;11.20;99.90
18305;DHT22;9278;52.156;21.048;2023-04-15T11:15:58;11.30;99.90
18305;DHT22;9278;52.156;21.048;2023-04-15T11:18:29;11.30;99.90
18305;DHT22;9278;52.156;21.048;2023-04-15T11:21:00;11.30;99.90
18305;DHT22;9278;52.156;21.048;2023-04-15T11:23:34;11.40;99.90
18305;DHT22;9278;52.156;21.048;2023-04-15T11:26:05;11.60;99.90
18305;DHT22;9278;52.156;21.048;2023-04-15T11:28:38;11.50;99.90
18305;DHT22;9278;52.156;21.048;2023-04-15T11:31:08;11.50;99.90
18305;DHT22;9278;52.156;21.048;2023-04-15T11:33:53;11.80;99.90
18305;DHT22;9278;52.156;21.048;2023-04-15T11:36:24;11.80;99.90
18305;DHT22;9278;52.156;21.048;2023-04-15T11:38:53;12.30;99.90
18305;DHT22;9278;52.156;21.048;2023-04-15T11:41:22;12.20;99.90
18305;DHT22;9278;52.156;21.048;2023-04-15T11:43:52;12.20;99.90
18305;DHT22;9278;52.156;21.048;2023-04-15T11:46:20;12.20;99.90
18305;DHT22;9278;52.156;21.048;2023-04-15T11:51:17;12.70;99.90
18305;DHT22;9278;52.156;21.048;2023-04-15T11:53:49;12.40;99.90
18305;DHT22;9278;52.156;21.048;2023-04-15T11:56:19;12.20;99.90
18305;DHT22;9278;52.156;21.048;2023-04-15T11:58:50;12.20;99.90
18305;DHT22;9278;52.156;21.048;2023-04-15T12:01:20;11.70;99.90
18305;DHT22;9278;52.156;21.048;2023-04-15T12:03:57;11.80;99.90
18305;DHT22;9278;52.156;21.048;2023-04-15T12:06:31;12.10;99.90
18305;DHT22;9278;52.156;21.048;2023-04-15T12:09:06;12.10;99.90
18305;DHT22;9278;52.156;21.048;2023-04-15T12:11:41;12.40;99.90
18305;DHT22;9278;52.156;21.048;2023-04-15T12:14:20;13.20;99.90
18305;DHT22;9278;52.156;21.048;2023-04-15T12:16:51;13.40;99.90
18305;DHT22;9278;52.156;21.048;2023-04-15T12:19:25;12.60;99.90
18305;DHT22;9278;52.156;21.048;2023-04-15T12:21:58;13.10;99.90
18305;DHT22;9278;52.156;21.048;2023-04-15T12:24:29;13.50;99.90
18305;DHT22;9278;52.156;21.048;2023-04-15T12:27:02;13.10;99.90
18305;DHT22;9278;52.156;21.048;2023-04-15T12:29:32;13.10;1.00
18305;DHT22;9278;52.156;21.048;2023-04-15T12:32:06;13.20;1.00
18305;DHT22;9278;52.156;21.048;2023-04-15T12:34:36;13.60;1.00
18305;DHT22;9278;52.156;21.048;2023-04-15T12:37:05;14.10;1.00
18305;DHT22;9278;52.156;21.048;2023-04-15T12:39:37;14.00;70.80
18305;DHT22;9278;52.156;21.048;2023-04-15T12:42:05;13.60;57.30
18305;DHT22;9278;52.156;21.048;2023-04-15T12:44:34;14.00;99.90
18305;DHT22;9278;52.156;21.048;2023-04-15T12:47:06;14.10;1.00
18305;DHT22;9278;52.156;21.048;2023-04-15T12:49:35;14.60;1.00
18305;DHT22;9278;52.156;21.048;2023-04-15T12:52:04;14.80;99.90
18305;DHT22;9278;52.156;21.048;2023-04-15T12:54:32;14.80;99.90
18305;DHT22;9278;52.156;21.048;2023-04-15T12:57:02;14.80;99.90
18305;DHT22;9278;52.156;21.048;2023-04-15T12:59:33;15.50;1.00
18305;DHT22;9278;52.156;21.048;2023-04-15T13:02:04;15.20;99.90
18305;DHT22;9278;52.156;21.048;2023-04-15T13:04:33;15.20;99.90
18305;DHT22;9278;52.156;21.048;2023-04-15T13:07:01;14.70;99.90
18305;DHT22;9278;52.156;21.048;2023-04-15T13:09:30;14.80;99.90
18305;DHT22;9278;52.156;21.048;2023-04-15T13:11:58;15.50;1.00
18305;DHT22;9278;52.156;21.048;2023-04-15T13:14:32;15.50;1.00
18305;DHT22;9278;52.156;21.048;2023-04-15T13:17:01;15.50;99.90
18305;DHT22;9278;52.156;21.048;2023-04-15T13:19:37;15.30;99.90
18305;DHT22;9278;52.156;21.048;2023-04-15T13:22:06;14.70;99.90
18305;DHT22;9278;52.156;21.048;2023-04-15T13:24:35;14.20;99.90
18305;DHT22;9278;52.156;21.048;2023-04-15T13:27:05;14.20;99.90
18305;DHT22;9278;52.156;21.048;2023-04-15T13:29:35;14.50;99.90
18305;DHT22;9278;52.156;21.048;2023-04-15T13:32:06;15.10;1.00
18305;DHT22;9278;52.156;21.048;2023-04-15T13:37:07;14.50;99.90
18305;DHT22;9278;52.156;21.048;2023-04-15T13:39:35;15.20;99.90
18305;DHT22;9278;52.156;21.048;2023-04-15T13:42:04;14.50;99.90
18305;DHT22;9278;52.156;21.048;2023-04-15T13:44:32;14.30;99.90
18305;DHT22;9278;52.156;21.048;2023-04-15T13:47:00;13.80;99.90
18305;DHT22;9278;52.156;21.048;2023-04-15T13:49:29;13.90;99.90
18305;DHT22;9278;52.156;21.048;2023-04-15T13:51:57;13.80;99.90
18305;DHT22;9278;52.156;21.048;2023-04-15T13:54:26;14.10;99.90
18305;DHT22;9278;52.156;21.048;2023-04-15T13:57:04;14.10;99.90
18305;DHT22;9278;52.156;21.048;2023-04-15T13:59:33;14.10;99.90
18305;DHT22;9278;52.156;21.048;2023-04-15T14:02:01;14.20;99.90
18305;DHT22;9278;52.156;21.048;2023-04-15T14:06:59;14.50;99.90
18305;DHT22;9278;52.156;21.048;2023-04-15T14:09:32;14.70;99.90
18305;DHT22;9278;52.156;21.048;2023-04-15T14:14:29;13.40;1.00
18305;DHT22;9278;52.156;21.048;2023-04-15T14:16:58;13.50;99.90
18305;DHT22;9278;52.156;21.048;2023-04-15T14:19:28;12.90;99.90
18305;DHT22;9278;52.156;21.048;2023-04-15T14:26:57;13.60;99.90
18305;DHT22;9278;52.156;21.048;2023-04-15T14:29:25;13.60;99.90
18305;DHT22;9278;52.156;21.048;2023-04-15T14:34:38;13.30;99.90
18305;DHT22;9278;52.156;21.048;2023-04-15T14:37:06;12.70;1.00
18305;DHT22;9278;52.156;21.048;2023-04-15T14:39:35;13.00;99.90
18305;DHT22;9278;52.156;21.048;2023-04-15T14:42:05;13.40;1.00
18305;DHT22;9278;52.156;21.048;2023-04-15T14:44:33;13.50;99.90
18305;DHT22;9278;52.156;21.048;2023-04-15T14:47:01;13.60;99.90
18305;DHT22;9278;52.156;21.048;2023-04-15T14:49:30;13.70;99.90
18305;DHT22;9278;52.156;21.048;2023-04-15T14:51:58;13.80;99.90
18305;DHT22;9278;52.156;21.048;2023-04-15T14:54:27;14.20;99.90
18305;DHT22;9278;52.156;21.048;2023-04-15T14:56:55;14.10;99.90
18305;DHT22;9278;52.156;21.048;2023-04-15T14:59:25;13.50;1.00
18305;DHT22;9278;52.156;21.048;2023-04-15T15:04:23;14.00;99.90
18305;DHT22;9278;52.156;21.048;2023-04-15T15:06:52;14.10;99.90
18305;DHT22;9278;52.156;21.048;2023-04-15T15:11:49;13.30;99.90
18305;DHT22;9278;52.156;21.048;2023-04-15T15:14:19;13.10;99.90
18305;DHT22;9278;52.156;21.048;2023-04-15T15:16:49;12.90;99.90
18305;DHT22;9278;52.156;21.048;2023-04-15T15:19:17;12.80;99.90
18305;DHT22;9278;52.156;21.048;2023-04-15T15:21:45;13.10;99.90
18305;DHT22;9278;52.156;21.048;2023-04-15T15:24:14;13.40;99.90
18305;DHT22;9278;52.156;21.048;2023-04-15T15:29:11;13.60;99.90
18305;DHT22;9278;52.156;21.048;2023-04-15T15:31:39;14.00;99.90
18305;DHT22;9278;52.156;21.048;2023-04-15T15:34:08;14.00;99.90
18305;DHT22;9278;52.156;21.048;2023-04-15T15:36:37;13.60;99.90
18305;DHT22;9278;52.156;21.048;2023-04-15T15:39:05;13.50;99.90
18305;DHT22;9278;52.156;21.048;2023-04-15T15:41:33;13.10;1.00
18305;DHT22;9278;52.156;21.048;2023-04-15T15:44:02;12.80;99.90
18305;DHT22;9278;52.156;21.048;2023-04-15T15:46:30;12.50;99.90
18305;DHT22;9278;52.156;21.048;2023-04-15T15:49:00;12.50;99.90
18305;DHT22;9278;52.156;21.048;2023-04-15T15:51:30;12.50;99.90
18305;DHT22;9278;52.156;21.048;2023-04-15T15:53:59;12.60;99.90
18305;DHT22;9278;52.156;21.048;2023-04-15T15:56:27;12.40;99.90
18305;DHT22;9278;52.156;21.048;2023-04-15T16:01:24;12.10;99.90
18305;DHT22;9278;52.156;21.048;2023-04-15T16:03:53;12.20;99.90
18305;DHT22;9278;52.156;21.048;2023-04-15T16:08:52;12.10;99.90
18305;DHT22;9278;52.156;21.048;2023-04-15T16:13:49;12.30;31.30
18305;DHT22;9278;52.156;21.048;2023-04-15T16:16:17;12.20;99.90
18305;DHT22;9278;52.156;21.048;2023-04-15T16:18:46;12.10;8.80
18305;DHT22;9278;52.156;21.048;2023-04-15T16:21:14;12.30;99.90
18305;DHT22;9278;52.156;21.048;2023-04-15T16:26:12;12.70;99.90
18305;DHT22;9278;52.156;21.048;2023-04-15T16:31:10;12.90;99.90
18305;DHT22;9278;52.156;21.048;2023-04-15T16:33:38;12.80;99.90
18305;DHT22;9278;52.156;21.048;2023-04-15T16:38:35;12.50;99.90
18305;DHT22;9278;52.156;21.048;2023-04-15T16:41:04;12.20;99.90
18305;DHT22;9278;52.156;21.048;2023-04-15T16:43:34;12.20;99.90
18305;DHT22;9278;52.156;21.048;2023-04-15T16:46:02;12.20;99.90
18305;DHT22;9278;52.156;21.048;2023-04-15T16:48:30;12.20;99.90
18305;DHT22;9278;52.156;21.048;2023-04-15T16:50:59;12.20;99.90
18305;DHT22;9278;52.156;21.048;2023-04-15T16:53:27;12.30;5.00
18305;DHT22;9278;52.156;21.048;2023-04-15T16:55:55;12.10;99.90
18305;DHT22;9278;52.156;21.048;2023-04-15T17:00:54;11.80;99.90
18305;DHT22;9278;52.156;21.048;2023-04-15T17:03:24;11.90;99.90
18305;DHT22;9278;52.156;21.048;2023-04-15T17:05:52;11.70;99.90
18305;DHT22;9278;52.156;21.048;2023-04-15T17:08:20;11.70;99.90
18305;DHT22;9278;52.156;21.048;2023-04-15T17:10:48;11.60;99.90
18305;DHT22;9278;52.156;21.048;2023-04-15T17:13:17;11.50;99.90
18305;DHT22;9278;52.156;21.048;2023-04-15T17:15:46;11.50;99.90
18305;DHT22;9278;52.156;21.048;2023-04-15T17:18:16;11.40;99.90
18305;DHT22;9278;52.156;21.048;2023-04-15T17:20:45;11.40;99.90
18305;DHT22;9278;52.156;21.048;2023-04-15T17:28:17;11.20;99.90
18305;DHT22;9278;52.156;21.048;2023-04-15T17:30:46;11.40;99.90
18305;DHT22;9278;52.156;21.048;2023-04-15T17:33:16;11.10;1.00
18305;DHT22;9278;52.156;21.048;2023-04-15T17:43:36;12.00;99.90
18305;DHT22;9278;52.156;21.048;2023-04-15T17:46:05;11.10;99.90
18305;DHT22;9278;52.156;21.048;2023-04-15T17:48:35;10.70;99.90
18305;DHT22;9278;52.156;21.048;2023-04-15T18:05:59;10.70;99.90
18305;DHT22;9278;52.156;21.048;2023-04-15T18:08:27;10.80;39.70
18305;DHT22;9278;52.156;21.048;2023-04-15T18:13:29;10.60;99.90
18305;DHT22;9278;52.156;21.048;2023-04-15T18:18:27;10.60;99.90
18305;DHT22;9278;52.156;21.048;2023-04-15T18:20:55;10.60;99.90
18305;DHT22;9278;52.156;21.048;2023-04-15T18:23:26;10.50;99.90
18305;DHT22;9278;52.156;21.048;2023-04-15T18:40:54;10.50;99.90
18305;DHT22;9278;52.156;21.048;2023-04-15T18:50:49;10.50;99.90
18305;DHT22;9278;52.156;21.048;2023-04-15T18:55:48;10.50;99.90
18305;DHT22;9278;52.156;21.048;2023-04-15T18:58:18;10.40;99.90
18305;DHT22;9278;52.156;21.048;2023-04-15T19:00:47;10.30;99.90
18305;DHT22;9278;52.156;21.048;2023-04-15T19:08:13;10.20;99.90
18305;DHT22;9278;52.156;21.048;2023-04-15T19:10:42;10.10;99.90
18305;DHT22;9278;52.156;21.048;2023-04-15T19:13:12;10.00;99.90
18305;DHT22;9278;52.156;21.048;2023-04-15T19:15:45;10.00;99.90
18305;DHT22;9278;52.156;21.048;2023-04-15T19:18:14;9.90;99.90
18305;DHT22;9278;52.156;21.048;2023-04-15T19:20:42;9.90;99.90
18305;DHT22;9278;52.156;21.048;2023-04-15T19:28:08;10.00;99.90
18305;DHT22;9278;52.156;21.048;2023-04-15T19:30:37;10.00;99.90
18305;DHT22;9278;52.156;21.048;2023-04-15T19:33:07;10.00;99.90
18305;DHT22;9278;52.156;21.048;2023-04-15T19:38:05;9.90;99.90
18305;DHT22;9278;52.156;21.048;2023-04-15T19:43:04;9.90;99.90
18305;DHT22;9278;52.156;21.048;2023-04-15T19:45:33;9.80;99.90
18305;DHT22;9278;52.156;21.048;2023-04-15T19:48:01;9.90;99.90
18305;DHT22;9278;52.156;21.048;2023-04-15T19:50:32;10.30;99.90
18305;DHT22;9278;52.156;21.048;2023-04-15T19:53:00;9.60;99.90
18305;DHT22;9278;52.156;21.048;2023-04-15T20:00:26;9.80;99.90
18305;DHT22;9278;52.156;21.048;2023-04-15T20:05:25;10.00;99.90
18305;DHT22;9278;52.156;21.048;2023-04-15T20:07:55;10.10;88.40
18305;DHT22;9278;52.156;21.048;2023-04-15T20:10:25;9.60;99.90
18305;DHT22;9278;52.156;21.048;2023-04-15T20:25:20;9.90;99.90